Terminal Aerodrome Forecast
Issued by NWS Wilmington, OH

Home | Current Version | Previous Version | Text Only | Print | Product List | Glossary On
Versions: 1 2 3 4 5 6 7 8 9 10 11 12 13 14 15 16 17 18 19 20
000
FTUS41 KILN 231100
TAFCMH
TAF
KCMH 231136Z 2312/2412 27006KT P6SM VCTS OVC040CB
      TEMPO 2312/2316 5SM -TSRA BR OVC035CB
     FM231600 31010KT 5SM -SHRA BR VCTS OVC040CB
     FM231900 32010KT P6SM BKN040
     FM232300 35010KT P6SM BKN100
     FM241100 01008KT P6SM SCT100=

USA.gov is the U.S. government's official web portal to all federal, state and local government web resources and services.